sensor_id;sensor_type;location;lat;lon;timestamp;temperature;humidity
42245;DHT22;27912;51.828;5.688;2023-06-10T00:01:47;20.90;81.30
42245;DHT22;27912;51.828;5.688;2023-06-10T00:04:16;20.90;81.60
42245;DHT22;27912;51.828;5.688;2023-06-10T00:06:43;20.90;81.90
42245;DHT22;27912;51.828;5.688;2023-06-10T00:09:09;20.80;82.30
42245;DHT22;27912;51.828;5.688;2023-06-10T00:11:39;20.80;82.60
42245;DHT22;27912;51.828;5.688;2023-06-10T00:14:05;20.70;82.80
42245;DHT22;27912;51.828;5.688;2023-06-10T00:16:31;20.70;83.20
42245;DHT22;27912;51.828;5.688;2023-06-10T00:18:57;20.60;83.50
42245;DHT22;27912;51.828;5.688;2023-06-10T00:21:31;20.60;83.70
42245;DHT22;27912;51.828;5.688;2023-06-10T00:24:03;20.60;83.90
42245;DHT22;27912;51.828;5.688;2023-06-10T00:26:30;20.60;84.10
42245;DHT22;27912;51.828;5.688;2023-06-10T00:28:56;20.60;84.10
42245;DHT22;27912;51.828;5.688;2023-06-10T00:31:21;20.50;84.20
42245;DHT22;27912;51.828;5.688;2023-06-10T00:33:47;20.50;84.40
42245;DHT22;27912;51.828;5.688;2023-06-10T00:36:12;20.50;84.80
42245;DHT22;27912;51.828;5.688;2023-06-10T00:38:38;20.50;85.10
42245;DHT22;27912;51.828;5.688;2023-06-10T00:41:05;20.50;85.50
42245;DHT22;27912;51.828;5.688;2023-06-10T00:43:31;20.40;85.80
42245;DHT22;27912;51.828;5.688;2023-06-10T00:45:56;20.40;86.10
42245;DHT22;27912;51.828;5.688;2023-06-10T00:48:22;20.40;86.60
42245;DHT22;27912;51.828;5.688;2023-06-10T00:50:48;20.30;86.90
42245;DHT22;27912;51.828;5.688;2023-06-10T00:53:14;20.30;87.40
42245;DHT22;27912;51.828;5.688;2023-06-10T00:55:41;20.30;87.80
42245;DHT22;27912;51.828;5.688;2023-06-10T00:58:07;20.30;88.20
42245;DHT22;27912;51.828;5.688;2023-06-10T01:00:33;20.20;88.50
42245;DHT22;27912;51.828;5.688;2023-06-10T01:02:58;20.20;89.20
42245;DHT22;27912;51.828;5.688;2023-06-10T01:05:24;20.10;89.50
42245;DHT22;27912;51.828;5.688;2023-06-10T01:11:07;20.10;90.20
42245;DHT22;27912;51.828;5.688;2023-06-10T01:13:35;20.00;90.50
42245;DHT22;27912;51.828;5.688;2023-06-10T01:16:01;19.90;90.80
42245;DHT22;27912;51.828;5.688;2023-06-10T01:18:33;19.90;91.20
42245;DHT22;27912;51.828;5.688;2023-06-10T01:20:58;19.80;91.40
42245;DHT22;27912;51.828;5.688;2023-06-10T01:23:24;19.70;91.70
42245;DHT22;27912;51.828;5.688;2023-06-10T01:25:59;19.70;92.00
42245;DHT22;27912;51.828;5.688;2023-06-10T01:28:31;19.70;92.30
42245;DHT22;27912;51.828;5.688;2023-06-10T01:34:00;19.70;92.80
42245;DHT22;27912;51.828;5.688;2023-06-10T01:36:26;19.60;93.00
42245;DHT22;27912;51.828;5.688;2023-06-10T01:38:53;19.60;93.20
42245;DHT22;27912;51.828;5.688;2023-06-10T01:41:19;19.50;93.60
42245;DHT22;27912;51.828;5.688;2023-06-10T01:43:47;19.50;93.80
42245;DHT22;27912;51.828;5.688;2023-06-10T01:46:13;19.50;94.00
42245;DHT22;27912;51.828;5.688;2023-06-10T01:48:41;19.40;94.30
42245;DHT22;27912;51.828;5.688;2023-06-10T01:51:07;19.40;94.50
42245;DHT22;27912;51.828;5.688;2023-06-10T01:53:33;19.30;94.70
42245;DHT22;27912;51.828;5.688;2023-06-10T01:55:59;19.30;94.80
42245;DHT22;27912;51.828;5.688;2023-06-10T01:58:25;19.30;94.90
42245;DHT22;27912;51.828;5.688;2023-06-10T02:00:51;19.20;95.00
42245;DHT22;27912;51.828;5.688;2023-06-10T02:03:16;19.20;95.10
42245;DHT22;27912;51.828;5.688;2023-06-10T02:05:42;19.20;95.20
42245;DHT22;27912;51.828;5.688;2023-06-10T02:08:07;19.10;95.30
42245;DHT22;27912;51.828;5.688;2023-06-10T02:10:33;19.10;95.40
42245;DHT22;27912;51.828;5.688;2023-06-10T02:13:00;19.10;95.60
42245;DHT22;27912;51.828;5.688;2023-06-10T02:15:25;19.00;95.70
42245;DHT22;27912;51.828;5.688;2023-06-10T02:17:52;19.00;95.70
42245;DHT22;27912;51.828;5.688;2023-06-10T02:20:17;19.00;95.80
42245;DHT22;27912;51.828;5.688;2023-06-10T02:22:43;19.00;95.90
42245;DHT22;27912;51.828;5.688;2023-06-10T02:25:08;19.00;95.90
42245;DHT22;27912;51.828;5.688;2023-06-10T02:27:34;18.90;96.00
42245;DHT22;27912;51.828;5.688;2023-06-10T02:30:00;18.80;96.40
42245;DHT22;27912;51.828;5.688;2023-06-10T02:32:25;18.80;96.20
42245;DHT22;27912;51.828;5.688;2023-06-10T02:34:51;18.80;96.30
42245;DHT22;27912;51.828;5.688;2023-06-10T02:37:17;18.80;96.40
42245;DHT22;27912;51.828;5.688;2023-06-10T02:39:43;18.80;96.50
42245;DHT22;27912;51.828;5.688;2023-06-10T02:42:09;18.70;96.50
42245;DHT22;27912;51.828;5.688;2023-06-10T02:44:35;18.70;96.70
42245;DHT22;27912;51.828;5.688;2023-06-10T02:47:00;18.70;96.80
42245;DHT22;27912;51.828;5.688;2023-06-10T02:49:26;18.60;97.00
42245;DHT22;27912;51.828;5.688;2023-06-10T02:51:55;18.60;97.10
42245;DHT22;27912;51.828;5.688;2023-06-10T02:54:22;18.60;97.30
42245;DHT22;27912;51.828;5.688;2023-06-10T02:56:48;18.50;97.50
42245;DHT22;27912;51.828;5.688;2023-06-10T02:59:14;18.50;97.70
42245;DHT22;27912;51.828;5.688;2023-06-10T03:01:40;18.50;97.80
42245;DHT22;27912;51.828;5.688;2023-06-10T03:04:06;18.40;98.00
42245;DHT22;27912;51.828;5.688;2023-06-10T03:06:32;18.50;98.00
42245;DHT22;27912;51.828;5.688;2023-06-10T03:08:59;18.40;98.10
42245;DHT22;27912;51.828;5.688;2023-06-10T03:11:25;18.30;98.20
42245;DHT22;27912;51.828;5.688;2023-06-10T03:13:51;18.30;98.30
42245;DHT22;27912;51.828;5.688;2023-06-10T03:16:19;18.30;98.40
42245;DHT22;27912;51.828;5.688;2023-06-10T03:18:44;18.30;98.40
42245;DHT22;27912;51.828;5.688;2023-06-10T03:21:10;18.20;98.50
42245;DHT22;27912;51.828;5.688;2023-06-10T03:23:35;18.20;98.50
42245;DHT22;27912;51.828;5.688;2023-06-10T03:26:02;18.20;98.60
42245;DHT22;27912;51.828;5.688;2023-06-10T03:28:27;18.10;98.80
42245;DHT22;27912;51.828;5.688;2023-06-10T03:30:53;18.10;98.90
42245;DHT22;27912;51.828;5.688;2023-06-10T03:33:18;18.10;99.00
42245;DHT22;27912;51.828;5.688;2023-06-10T03:35:44;18.10;99.10
42245;DHT22;27912;51.828;5.688;2023-06-10T03:38:10;18.10;99.20
42245;DHT22;27912;51.828;5.688;2023-06-10T03:40:36;18.10;99.30
42245;DHT22;27912;51.828;5.688;2023-06-10T03:43:01;18.00;99.30
42245;DHT22;27912;51.828;5.688;2023-06-10T03:45:27;18.00;99.50
42245;DHT22;27912;51.828;5.688;2023-06-10T03:47:54;18.00;99.60
42245;DHT22;27912;51.828;5.688;2023-06-10T03:50:20;18.00;99.70
42245;DHT22;27912;51.828;5.688;2023-06-10T03:52:47;18.00;99.80
42245;DHT22;27912;51.828;5.688;2023-06-10T03:55:13;18.00;99.90
42245;DHT22;27912;51.828;5.688;2023-06-10T03:57:39;18.00;99.90
42245;DHT22;27912;51.828;5.688;2023-06-10T04:00:05;18.00;99.90
42245;DHT22;27912;51.828;5.688;2023-06-10T04:02:35;18.00;99.90
42245;DHT22;27912;51.828;5.688;2023-06-10T04:05:02;18.00;99.90
42245;DHT22;27912;51.828;5.688;2023-06-10T04:07:27;18.00;99.90
42245;DHT22;27912;51.828;5.688;2023-06-10T04:09:54;18.00;99.90
42245;DHT22;27912;51.828;5.688;2023-06-10T04:12:19;18.00;99.90
42245;DHT22;27912;51.828;5.688;2023-06-10T04:14:45;18.10;99.90
42245;DHT22;27912;51.828;5.688;2023-06-10T04:17:13;18.10;99.90
42245;DHT22;27912;51.828;5.688;2023-06-10T04:19:38;18.10;99.90
42245;DHT22;27912;51.828;5.688;2023-06-10T04:22:04;18.10;99.90
42245;DHT22;27912;51.828;5.688;2023-06-10T04:24:30;18.20;99.90
42245;DHT22;27912;51.828;5.688;2023-06-10T04:26:56;18.10;99.90
42245;DHT22;27912;51.828;5.688;2023-06-10T04:29:22;18.10;99.90
42245;DHT22;27912;51.828;5.688;2023-06-10T04:31:47;18.20;99.90
42245;DHT22;27912;51.828;5.688;2023-06-10T04:34:14;18.20;99.90
42245;DHT22;27912;51.828;5.688;2023-06-10T04:36:39;18.20;99.90
42245;DHT22;27912;51.828;5.688;2023-06-10T04:39:05;18.20;99.90
42245;DHT22;27912;51.828;5.688;2023-06-10T04:41:31;18.20;99.90
42245;DHT22;27912;51.828;5.688;2023-06-10T04:43:57;18.20;99.90
42245;DHT22;27912;51.828;5.688;2023-06-10T04:46:23;18.30;99.90
42245;DHT22;27912;51.828;5.688;2023-06-10T04:48:49;18.30;99.90
42245;DHT22;27912;51.828;5.688;2023-06-10T04:51:15;18.40;99.90
42245;DHT22;27912;51.828;5.688;2023-06-10T04:53:40;18.40;99.90
42245;DHT22;27912;51.828;5.688;2023-06-10T04:56:06;18.60;99.90
42245;DHT22;27912;51.828;5.688;2023-06-10T04:58:33;18.90;99.90
42245;DHT22;27912;51.828;5.688;2023-06-10T05:00:58;19.10;99.90
42245;DHT22;27912;51.828;5.688;2023-06-10T05:03:25;19.40;99.90
42245;DHT22;27912;51.828;5.688;2023-06-10T05:05:50;19.70;99.90
42245;DHT22;27912;51.828;5.688;2023-06-10T05:08:16;19.90;99.90
42245;DHT22;27912;51.828;5.688;2023-06-10T05:10:42;20.20;99.10
42245;DHT22;27912;51.828;5.688;2023-06-10T05:13:07;20.30;98.50
42245;DHT22;27912;51.828;5.688;2023-06-10T05:15:33;20.50;97.90
42245;DHT22;27912;51.828;5.688;2023-06-10T05:17:58;20.70;97.40
42245;DHT22;27912;51.828;5.688;2023-06-10T05:20:25;20.90;96.80
42245;DHT22;27912;51.828;5.688;2023-06-10T05:22:51;21.00;96.40
42245;DHT22;27912;51.828;5.688;2023-06-10T05:25:16;21.10;96.10
42245;DHT22;27912;51.828;5.688;2023-06-10T05:27:42;21.30;95.90
42245;DHT22;27912;51.828;5.688;2023-06-10T05:30:09;21.50;95.30
42245;DHT22;27912;51.828;5.688;2023-06-10T05:32:35;21.60;94.80
42245;DHT22;27912;51.828;5.688;2023-06-10T05:35:01;21.80;94.20
42245;DHT22;27912;51.828;5.688;2023-06-10T05:37:27;21.80;94.10
42245;DHT22;27912;51.828;5.688;2023-06-10T05:39:52;21.90;93.80
42245;DHT22;27912;51.828;5.688;2023-06-10T05:42:18;22.00;93.50
42245;DHT22;27912;51.828;5.688;2023-06-10T05:44:43;22.00;93.30
42245;DHT22;27912;51.828;5.688;2023-06-10T05:47:09;22.00;92.70
42245;DHT22;27912;51.828;5.688;2023-06-10T05:49:34;22.10;92.30
42245;DHT22;27912;51.828;5.688;2023-06-10T05:52:00;22.00;92.30
42245;DHT22;27912;51.828;5.688;2023-06-10T05:54:26;22.00;92.10
42245;DHT22;27912;51.828;5.688;2023-06-10T05:56:52;21.90;92.00
42245;DHT22;27912;51.828;5.688;2023-06-10T05:59:17;21.90;92.00
42245;DHT22;27912;51.828;5.688;2023-06-10T06:01:43;21.90;91.80
42245;DHT22;27912;51.828;5.688;2023-06-10T06:04:08;21.80;91.70
42245;DHT22;27912;51.828;5.688;2023-06-10T06:06:35;21.70;91.80
42245;DHT22;27912;51.828;5.688;2023-06-10T06:09:01;21.60;92.00
42245;DHT22;27912;51.828;5.688;2023-06-10T06:11:26;21.70;92.10
42245;DHT22;27912;51.828;5.688;2023-06-10T06:13:52;21.80;92.20
42245;DHT22;27912;51.828;5.688;2023-06-10T06:16:18;21.80;92.40
42245;DHT22;27912;51.828;5.688;2023-06-10T06:18:44;21.90;92.10
42245;DHT22;27912;51.828;5.688;2023-06-10T06:21:09;22.10;92.10
42245;DHT22;27912;51.828;5.688;2023-06-10T06:23:35;22.20;91.80
42245;DHT22;27912;51.828;5.688;2023-06-10T06:26:00;22.20;91.60
42245;DHT22;27912;51.828;5.688;2023-06-10T06:28:26;22.30;91.50
42245;DHT22;27912;51.828;5.688;2023-06-10T06:30:55;22.30;91.50
42245;DHT22;27912;51.828;5.688;2023-06-10T06:33:20;22.40;91.70
42245;DHT22;27912;51.828;5.688;2023-06-10T06:35:46;22.40;91.30
42245;DHT22;27912;51.828;5.688;2023-06-10T06:38:12;22.40;90.90
42245;DHT22;27912;51.828;5.688;2023-06-10T06:40:37;22.40;91.10
42245;DHT22;27912;51.828;5.688;2023-06-10T06:43:03;22.40;91.00
42245;DHT22;27912;51.828;5.688;2023-06-10T06:45:28;22.40;91.10
42245;DHT22;27912;51.828;5.688;2023-06-10T06:47:54;22.40;90.60
42245;DHT22;27912;51.828;5.688;2023-06-10T06:50:21;22.40;90.50
42245;DHT22;27912;51.828;5.688;2023-06-10T06:52:46;22.40;90.40
42245;DHT22;27912;51.828;5.688;2023-06-10T06:55:12;22.50;90.70
42245;DHT22;27912;51.828;5.688;2023-06-10T06:57:38;22.60;90.60
42245;DHT22;27912;51.828;5.688;2023-06-10T07:00:04;22.70;90.30
42245;DHT22;27912;51.828;5.688;2023-06-10T07:02:30;22.70;90.00
42245;DHT22;27912;51.828;5.688;2023-06-10T07:04:57;22.80;89.90
42245;DHT22;27912;51.828;5.688;2023-06-10T07:07:24;22.80;89.20
42245;DHT22;27912;51.828;5.688;2023-06-10T07:09:50;22.80;89.30
42245;DHT22;27912;51.828;5.688;2023-06-10T07:12:15;22.90;89.10
42245;DHT22;27912;51.828;5.688;2023-06-10T07:14:41;22.90;88.60
42245;DHT22;27912;51.828;5.688;2023-06-10T07:17:07;23.00;88.40
42245;DHT22;27912;51.828;5.688;2023-06-10T07:19:32;23.00;88.20
42245;DHT22;27912;51.828;5.688;2023-06-10T07:21:58;23.10;88.20
42245;DHT22;27912;51.828;5.688;2023-06-10T07:24:23;23.20;87.60
42245;DHT22;27912;51.828;5.688;2023-06-10T07:26:49;23.30;87.40
42245;DHT22;27912;51.828;5.688;2023-06-10T07:29:15;23.40;87.20
42245;DHT22;27912;51.828;5.688;2023-06-10T07:31:41;23.40;86.90
42245;DHT22;27912;51.828;5.688;2023-06-10T07:34:07;23.60;86.60
42245;DHT22;27912;51.828;5.688;2023-06-10T07:36:33;23.60;85.60
42245;DHT22;27912;51.828;5.688;2023-06-10T07:38:58;23.60;85.20
42245;DHT22;27912;51.828;5.688;2023-06-10T07:41:24;23.60;85.00
42245;DHT22;27912;51.828;5.688;2023-06-10T07:43:53;23.70;84.20
42245;DHT22;27912;51.828;5.688;2023-06-10T07:46:22;23.70;83.70
42245;DHT22;27912;51.828;5.688;2023-06-10T07:48:48;23.80;84.50
42245;DHT22;27912;51.828;5.688;2023-06-10T07:51:15;23.80;84.20
42245;DHT22;27912;51.828;5.688;2023-06-10T07:53:41;24.00;83.80
42245;DHT22;27912;51.828;5.688;2023-06-10T07:56:06;24.10;83.50
42245;DHT22;27912;51.828;5.688;2023-06-10T07:58:32;24.20;82.90
42245;DHT22;27912;51.828;5.688;2023-06-10T08:00:57;24.20;82.10
42245;DHT22;27912;51.828;5.688;2023-06-10T08:03:23;24.20;81.80
42245;DHT22;27912;51.828;5.688;2023-06-10T08:05:48;24.20;81.70
42245;DHT22;27912;51.828;5.688;2023-06-10T08:08:14;24.30;81.90
42245;DHT22;27912;51.828;5.688;2023-06-10T08:10:39;24.50;81.90
42245;DHT22;27912;51.828;5.688;2023-06-10T08:13:05;24.60;81.30
42245;DHT22;27912;51.828;5.688;2023-06-10T08:15:31;24.60;81.30
42245;DHT22;27912;51.828;5.688;2023-06-10T08:17:56;24.70;80.30
42245;DHT22;27912;51.828;5.688;2023-06-10T08:20:22;24.70;80.00
42245;DHT22;27912;51.828;5.688;2023-06-10T08:22:47;24.70;80.30
42245;DHT22;27912;51.828;5.688;2023-06-10T08:25:13;24.70;80.40
42245;DHT22;27912;51.828;5.688;2023-06-10T08:27:39;24.90;80.10
42245;DHT22;27912;51.828;5.688;2023-06-10T08:30:05;24.90;79.70
42245;DHT22;27912;51.828;5.688;2023-06-10T08:32:30;25.10;79.50
42245;DHT22;27912;51.828;5.688;2023-06-10T08:34:56;25.10;79.90
42245;DHT22;27912;51.828;5.688;2023-06-10T08:37:21;25.40;79.80
42245;DHT22;27912;51.828;5.688;2023-06-10T08:39:47;25.50;79.20
42245;DHT22;27912;51.828;5.688;2023-06-10T08:44:46;25.60;77.90
42245;DHT22;27912;51.828;5.688;2023-06-10T08:47:15;25.60;77.30
42245;DHT22;27912;51.828;5.688;2023-06-10T08:49:46;25.50;77.40
42245;DHT22;27912;51.828;5.688;2023-06-10T08:52:17;25.50;78.00
42245;DHT22;27912;51.828;5.688;2023-06-10T08:54:54;25.60;77.70
42245;DHT22;27912;51.828;5.688;2023-06-10T08:57:22;25.60;77.40
42245;DHT22;27912;51.828;5.688;2023-06-10T08:59:49;25.70;77.20
42245;DHT22;27912;51.828;5.688;2023-06-10T09:02:15;25.60;76.70
42245;DHT22;27912;51.828;5.688;2023-06-10T09:04:44;25.60;77.80
42245;DHT22;27912;51.828;5.688;2023-06-10T09:07:11;25.80;78.50
42245;DHT22;27912;51.828;5.688;2023-06-10T09:09:37;25.90;76.40
42245;DHT22;27912;51.828;5.688;2023-06-10T09:12:04;25.90;76.10
42245;DHT22;27912;51.828;5.688;2023-06-10T09:14:30;25.90;76.10
42245;DHT22;27912;51.828;5.688;2023-06-10T09:16:55;26.10;75.90
42245;DHT22;27912;51.828;5.688;2023-06-10T09:19:24;26.10;75.70
42245;DHT22;27912;51.828;5.688;2023-06-10T09:21:50;26.30;75.00
42245;DHT22;27912;51.828;5.688;2023-06-10T09:24:16;26.30;74.80
42245;DHT22;27912;51.828;5.688;2023-06-10T09:26:42;26.40;74.00
42245;DHT22;27912;51.828;5.688;2023-06-10T09:29:08;26.40;73.60
42245;DHT22;27912;51.828;5.688;2023-06-10T09:31:36;26.50;73.20
42245;DHT22;27912;51.828;5.688;2023-06-10T09:34:25;26.60;72.80
42245;DHT22;27912;51.828;5.688;2023-06-10T09:36:51;26.60;71.90
42245;DHT22;27912;51.828;5.688;2023-06-10T09:39:18;26.60;71.80
42245;DHT22;27912;51.828;5.688;2023-06-10T09:41:45;26.60;72.30
42245;DHT22;27912;51.828;5.688;2023-06-10T09:44:16;26.80;71.60
42245;DHT22;27912;51.828;5.688;2023-06-10T09:46:42;26.90;72.00
42245;DHT22;27912;51.828;5.688;2023-06-10T09:49:08;27.10;71.80
42245;DHT22;27912;51.828;5.688;2023-06-10T09:51:33;27.20;71.50
42245;DHT22;27912;51.828;5.688;2023-06-10T09:54:02;27.30;70.90
42245;DHT22;27912;51.828;5.688;2023-06-10T09:56:35;27.20;69.60
42245;DHT22;27912;51.828;5.688;2023-06-10T09:59:02;27.30;69.80
42245;DHT22;27912;51.828;5.688;2023-06-10T10:01:28;27.40;70.10
42245;DHT22;27912;51.828;5.688;2023-06-10T10:03:53;27.50;69.60
42245;DHT22;27912;51.828;5.688;2023-06-10T10:06:19;27.60;69.20
42245;DHT22;27912;51.828;5.688;2023-06-10T10:08:47;27.60;69.60
42245;DHT22;27912;51.828;5.688;2023-06-10T10:11:16;27.90;69.60
42245;DHT22;27912;51.828;5.688;2023-06-10T10:13:45;28.10;69.10
42245;DHT22;27912;51.828;5.688;2023-06-10T10:16:15;28.30;68.80
42245;DHT22;27912;51.828;5.688;2023-06-10T10:18:45;28.50;66.70
42245;DHT22;27912;51.828;5.688;2023-06-10T10:21:15;28.50;66.00
42245;DHT22;27912;51.828;5.688;2023-06-10T10:24:00;28.50;65.50
42245;DHT22;27912;51.828;5.688;2023-06-10T10:26:27;28.60;65.60
42245;DHT22;27912;51.828;5.688;2023-06-10T10:29:11;28.60;64.50
42245;DHT22;27912;51.828;5.688;2023-06-10T10:31:42;28.60;64.90
42245;DHT22;27912;51.828;5.688;2023-06-10T10:34:13;28.70;63.80
42245;DHT22;27912;51.828;5.688;2023-06-10T10:36:40;28.60;64.50
42245;DHT22;27912;51.828;5.688;2023-06-10T10:39:07;28.60;63.80
42245;DHT22;27912;51.828;5.688;2023-06-10T10:41:33;28.60;62.60
42245;DHT22;27912;51.828;5.688;2023-06-10T10:43:59;28.60;62.60
42245;DHT22;27912;51.828;5.688;2023-06-10T10:46:25;28.60;63.40
42245;DHT22;27912;51.828;5.688;2023-06-10T10:48:53;28.80;62.60
42245;DHT22;27912;51.828;5.688;2023-06-10T10:51:19;28.90;63.00
42245;DHT22;27912;51.828;5.688;2023-06-10T10:54:12;29.00;62.60
42245;DHT22;27912;51.828;5.688;2023-06-10T10:56:38;29.10;62.00
42245;DHT22;27912;51.828;5.688;2023-06-10T10:59:05;29.20;61.70
42245;DHT22;27912;51.828;5.688;2023-06-10T11:01:41;29.20;59.60
42245;DHT22;27912;51.828;5.688;2023-06-10T11:04:08;29.30;59.70
42245;DHT22;27912;51.828;5.688;2023-06-10T11:06:35;29.30;58.40
42245;DHT22;27912;51.828;5.688;2023-06-10T11:09:00;29.20;58.90
42245;DHT22;27912;51.828;5.688;2023-06-10T11:11:27;29.40;57.70
42245;DHT22;27912;51.828;5.688;2023-06-10T11:16:42;29.30;57.80
42245;DHT22;27912;51.828;5.688;2023-06-10T11:19:08;29.30;57.60
42245;DHT22;27912;51.828;5.688;2023-06-10T11:21:59;29.40;57.80
42245;DHT22;27912;51.828;5.688;2023-06-10T11:24:25;29.50;57.90
42245;DHT22;27912;51.828;5.688;2023-06-10T11:26:51;29.60;57.50
42245;DHT22;27912;51.828;5.688;2023-06-10T11:29:17;29.50;56.30
42245;DHT22;27912;51.828;5.688;2023-06-10T11:31:50;29.40;56.40
42245;DHT22;27912;51.828;5.688;2023-06-10T11:34:21;29.40;56.80
42245;DHT22;27912;51.828;5.688;2023-06-10T11:36:52;29.50;56.00
42245;DHT22;27912;51.828;5.688;2023-06-10T11:39:21;29.50;55.90
42245;DHT22;27912;51.828;5.688;2023-06-10T11:41:49;29.60;55.30
42245;DHT22;27912;51.828;5.688;2023-06-10T11:44:15;29.60;55.70
42245;DHT22;27912;51.828;5.688;2023-06-10T11:46:41;29.60;55.80
42245;DHT22;27912;51.828;5.688;2023-06-10T11:49:10;29.80;55.20
42245;DHT22;27912;51.828;5.688;2023-06-10T11:51:38;29.70;55.20
42245;DHT22;27912;51.828;5.688;2023-06-10T11:54:04;29.90;55.00
42245;DHT22;27912;51.828;5.688;2023-06-10T11:56:31;29.90;54.10
42245;DHT22;27912;51.828;5.688;2023-06-10T11:58:59;29.90;53.90
42245;DHT22;27912;51.828;5.688;2023-06-10T12:01:31;29.80;54.20
42245;DHT22;27912;51.828;5.688;2023-06-10T12:03:59;29.80;54.00
42245;DHT22;27912;51.828;5.688;2023-06-10T12:06:25;29.80;54.80
42245;DHT22;27912;51.828;5.688;2023-06-10T12:08:50;30.00;53.50
42245;DHT22;27912;51.828;5.688;2023-06-10T12:11:16;30.10;53.70
42245;DHT22;27912;51.828;5.688;2023-06-10T12:13:49;30.20;53.50
42245;DHT22;27912;51.828;5.688;2023-06-10T12:16:16;30.20;53.80
42245;DHT22;27912;51.828;5.688;2023-06-10T12:18:43;30.40;53.40
42245;DHT22;27912;51.828;5.688;2023-06-10T12:21:20;30.50;52.60
42245;DHT22;27912;51.828;5.688;2023-06-10T12:26:38;30.70;51.80
42245;DHT22;27912;51.828;5.688;2023-06-10T12:29:18;30.50;51.20
42245;DHT22;27912;51.828;5.688;2023-06-10T12:32:01;30.30;51.20
42245;DHT22;27912;51.828;5.688;2023-06-10T12:34:38;30.30;52.10
42245;DHT22;27912;51.828;5.688;2023-06-10T12:37:12;30.40;51.00
42245;DHT22;27912;51.828;5.688;2023-06-10T12:39:42;30.40;51.10
42245;DHT22;27912;51.828;5.688;2023-06-10T12:42:17;30.30;52.10
42245;DHT22;27912;51.828;5.688;2023-06-10T12:44:42;30.40;51.80
42245;DHT22;27912;51.828;5.688;2023-06-10T12:47:09;30.50;51.80
42245;DHT22;27912;51.828;5.688;2023-06-10T12:49:36;30.60;51.90
42245;DHT22;27912;51.828;5.688;2023-06-10T12:52:02;30.70;51.60
42245;DHT22;27912;51.828;5.688;2023-06-10T12:54:27;30.90;51.20
42245;DHT22;27912;51.828;5.688;2023-06-10T12:56:53;30.80;50.40
42245;DHT22;27912;51.828;5.688;2023-06-10T12:59:19;30.90;51.70
42245;DHT22;27912;51.828;5.688;2023-06-10T13:01:49;30.90;50.20
42245;DHT22;27912;51.828;5.688;2023-06-10T13:04:16;30.80;50.20
42245;DHT22;27912;51.828;5.688;2023-06-10T13:06:41;30.90;50.80
42245;DHT22;27912;51.828;5.688;2023-06-10T13:09:07;31.10;50.60
42245;DHT22;27912;51.828;5.688;2023-06-10T13:11:32;31.10;49.70
42245;DHT22;27912;51.828;5.688;2023-06-10T13:13:58;31.10;49.40
42245;DHT22;27912;51.828;5.688;2023-06-10T13:16:23;31.00;49.10
42245;DHT22;27912;51.828;5.688;2023-06-10T13:18:49;30.90;49.40
42245;DHT22;27912;51.828;5.688;2023-06-10T13:21:15;30.90;48.90
42245;DHT22;27912;51.828;5.688;2023-06-10T13:23:40;30.90;48.90
42245;DHT22;27912;51.828;5.688;2023-06-10T13:26:09;30.90;48.80
42245;DHT22;27912;51.828;5.688;2023-06-10T13:28:34;30.90;49.00
42245;DHT22;27912;51.828;5.688;2023-06-10T13:31:00;30.90;48.80
42245;DHT22;27912;51.828;5.688;2023-06-10T13:33:25;30.90;48.80
42245;DHT22;27912;51.828;5.688;2023-06-10T13:35:51;31.00;49.20
42245;DHT22;27912;51.828;5.688;2023-06-10T13:38:16;31.10;49.00
42245;DHT22;27912;51.828;5.688;2023-06-10T13:40:42;31.20;48.80
42245;DHT22;27912;51.828;5.688;2023-06-10T13:43:07;31.20;48.90
42245;DHT22;27912;51.828;5.688;2023-06-10T13:45:34;31.30;48.60
42245;DHT22;27912;51.828;5.688;2023-06-10T13:48:00;31.50;48.20
42245;DHT22;27912;51.828;5.688;2023-06-10T13:50:26;31.60;48.10
42245;DHT22;27912;51.828;5.688;2023-06-10T13:52:52;31.50;47.40
42245;DHT22;27912;51.828;5.688;2023-06-10T13:55:17;31.50;47.40
42245;DHT22;27912;51.828;5.688;2023-06-10T13:57:45;31.40;47.20
42245;DHT22;27912;51.828;5.688;2023-06-10T14:00:11;31.40;48.10
42245;DHT22;27912;51.828;5.688;2023-06-10T14:02:36;31.70;48.00
42245;DHT22;27912;51.828;5.688;2023-06-10T14:05:02;31.70;46.90
42245;DHT22;27912;51.828;5.688;2023-06-10T14:07:28;31.70;46.90
42245;DHT22;27912;51.828;5.688;2023-06-10T14:09:53;31.70;47.10
42245;DHT22;27912;51.828;5.688;2023-06-10T14:12:19;31.70;47.40
42245;DHT22;27912;51.828;5.688;2023-06-10T14:14:44;31.90;47.50
42245;DHT22;27912;51.828;5.688;2023-06-10T14:17:10;32.00;47.10
42245;DHT22;27912;51.828;5.688;2023-06-10T14:19:36;32.00;47.30
42245;DHT22;27912;51.828;5.688;2023-06-10T14:22:01;32.00;47.20
42245;DHT22;27912;51.828;5.688;2023-06-10T14:24:27;32.00;47.10
42245;DHT22;27912;51.828;5.688;2023-06-10T14:26:52;32.00;47.10
42245;DHT22;27912;51.828;5.688;2023-06-10T14:29:18;32.00;47.00
42245;DHT22;27912;51.828;5.688;2023-06-10T14:31:44;32.10;46.60
42245;DHT22;27912;51.828;5.688;2023-06-10T14:34:10;32.20;46.00
42245;DHT22;27912;51.828;5.688;2023-06-10T14:36:35;32.10;45.80
42245;DHT22;27912;51.828;5.688;2023-06-10T14:39:02;32.30;46.00
42245;DHT22;27912;51.828;5.688;2023-06-10T14:41:27;32.30;45.60
42245;DHT22;27912;51.828;5.688;2023-06-10T14:43:53;32.30;45.60
42245;DHT22;27912;51.828;5.688;2023-06-10T14:46:18;32.40;46.00
42245;DHT22;27912;51.828;5.688;2023-06-10T14:48:46;32.40;45.80
42245;DHT22;27912;51.828;5.688;2023-06-10T14:51:11;32.50;45.50
42245;DHT22;27912;51.828;5.688;2023-06-10T14:53:37;32.50;45.90
42245;DHT22;27912;51.828;5.688;2023-06-10T14:56:03;32.60;45.40
42245;DHT22;27912;51.828;5.688;2023-06-10T14:58:28;32.70;45.30
42245;DHT22;27912;51.828;5.688;2023-06-10T15:00:54;32.70;45.70
42245;DHT22;27912;51.828;5.688;2023-06-10T15:03:19;32.70;45.10
42245;DHT22;27912;51.828;5.688;2023-06-10T15:05:45;32.60;45.20
42245;DHT22;27912;51.828;5.688;2023-06-10T15:08:11;32.50;45.20
42245;DHT22;27912;51.828;5.688;2023-06-10T15:10:36;32.60;45.90
42245;DHT22;27912;51.828;5.688;2023-06-10T15:13:02;32.80;46.40
42245;DHT22;27912;51.828;5.688;2023-06-10T15:15:27;33.10;45.40
42245;DHT22;27912;51.828;5.688;2023-06-10T15:17:53;33.30;45.00
42245;DHT22;27912;51.828;5.688;2023-06-10T15:20:19;33.20;44.70
42245;DHT22;27912;51.828;5.688;2023-06-10T15:22:45;33.10;44.40
42245;DHT22;27912;51.828;5.688;2023-06-10T15:25:11;33.20;44.70
42245;DHT22;27912;51.828;5.688;2023-06-10T15:27:36;33.60;44.70
42245;DHT22;27912;51.828;5.688;2023-06-10T15:30:02;34.10;44.20
42245;DHT22;27912;51.828;5.688;2023-06-10T15:32:28;34.50;43.90
42245;DHT22;27912;51.828;5.688;2023-06-10T15:34:54;35.20;44.00
42245;DHT22;27912;51.828;5.688;2023-06-10T15:37:20;35.70;43.30
42245;DHT22;27912;51.828;5.688;2023-06-10T15:39:46;36.20;43.20
42245;DHT22;27912;51.828;5.688;2023-06-10T15:42:12;36.50;42.30